sensor_id;sensor_type;location;lat;lon;timestamp;pressure;altitude;pressure_sealevel;temperature;humidity
47716;BME280;33476;50.984;3.538;2024-03-17T00:01:45;102258.75;;;12.42;56.80
47716;BME280;33476;50.984;3.538;2024-03-17T00:04:10;102259.63;;;12.41;57.08
47716;BME280;33476;50.984;3.538;2024-03-17T00:06:35;102252.63;;;12.41;56.86
47716;BME280;33476;50.984;3.538;2024-03-17T00:09:01;102248.44;;;12.35;57.24
47716;BME280;33476;50.984;3.538;2024-03-17T00:11:32;102247.78;;;12.29;57.51
47716;BME280;33476;50.984;3.538;2024-03-17T00:14:00;102247.91;;;12.24;57.26
47716;BME280;33476;50.984;3.538;2024-03-17T00:16:26;102249.00;;;12.19;57.67
47716;BME280;33476;50.984;3.538;2024-03-17T00:18:51;102245.41;;;12.21;57.73
47716;BME280;33476;50.984;3.538;2024-03-17T00:21:17;102247.84;;;12.27;57.63
47716;BME280;33476;50.984;3.538;2024-03-17T00:23:42;102251.22;;;12.31;57.20
47716;BME280;33476;50.984;3.538;2024-03-17T00:26:07;102252.06;;;12.31;57.46
47716;BME280;33476;50.984;3.538;2024-03-17T00:28:33;102251.97;;;12.34;57.21
47716;BME280;33476;50.984;3.538;2024-03-17T00:30:58;102251.00;;;12.37;57.29
47716;BME280;33476;50.984;3.538;2024-03-17T00:33:23;102253.44;;;12.43;57.41
47716;BME280;33476;50.984;3.538;2024-03-17T00:35:49;102251.75;;;12.41;57.21
47716;BME280;33476;50.984;3.538;2024-03-17T00:38:15;102251.72;;;12.42;57.29
47716;BME280;33476;50.984;3.538;2024-03-17T00:40:41;102250.06;;;12.40;57.46
47716;BME280;33476;50.984;3.538;2024-03-17T00:43:07;102250.16;;;12.36;56.99
47716;BME280;33476;50.984;3.538;2024-03-17T00:45:32;102243.25;;;12.34;57.36
47716;BME280;33476;50.984;3.538;2024-03-17T00:47:58;102247.66;;;12.33;57.27
47716;BME280;33476;50.984;3.538;2024-03-17T00:50:23;102247.53;;;12.36;57.31
47716;BME280;33476;50.984;3.538;2024-03-17T00:52:49;102252.66;;;12.40;57.63
47716;BME280;33476;50.984;3.538;2024-03-17T00:55:14;102251.00;;;12.37;57.54
47716;BME280;33476;50.984;3.538;2024-03-17T00:57:40;102243.94;;;12.39;57.36
47716;BME280;33476;50.984;3.538;2024-03-17T01:00:06;102236.09;;;12.39;57.43
47716;BME280;33476;50.984;3.538;2024-03-17T01:02:32;102235.09;;;12.43;57.48
47716;BME280;33476;50.984;3.538;2024-03-17T01:04:57;102233.28;;;12.45;57.00
47716;BME280;33476;50.984;3.538;2024-03-17T01:07:22;102237.78;;;12.42;57.44
47716;BME280;33476;50.984;3.538;2024-03-17T01:09:48;102233.69;;;12.33;57.55
47716;BME280;33476;50.984;3.538;2024-03-17T01:12:14;102228.53;;;12.30;57.73
47716;BME280;33476;50.984;3.538;2024-03-17T01:14:39;102231.09;;;12.31;57.58
47716;BME280;33476;50.984;3.538;2024-03-17T01:17:04;102219.75;;;12.31;57.52
47716;BME280;33476;50.984;3.538;2024-03-17T01:19:30;102222.38;;;12.31;57.58
47716;BME280;33476;50.984;3.538;2024-03-17T01:21:56;102221.44;;;12.33;57.46
47716;BME280;33476;50.984;3.538;2024-03-17T01:24:22;102216.41;;;12.27;57.59
47716;BME280;33476;50.984;3.538;2024-03-17T01:26:47;102211.22;;;12.26;57.63
47716;BME280;33476;50.984;3.538;2024-03-17T01:29:13;102203.19;;;12.30;57.59
47716;BME280;33476;50.984;3.538;2024-03-17T01:31:38;102199.78;;;12.28;57.78
47716;BME280;33476;50.984;3.538;2024-03-17T01:34:04;102201.69;;;12.23;58.09
47716;BME280;33476;50.984;3.538;2024-03-17T01:36:29;102190.47;;;12.20;57.99
47716;BME280;33476;50.984;3.538;2024-03-17T01:38:54;102191.50;;;12.14;58.07
47716;BME280;33476;50.984;3.538;2024-03-17T01:41:20;102196.66;;;12.17;58.12
47716;BME280;33476;50.984;3.538;2024-03-17T01:43:45;102193.13;;;12.18;57.98
47716;BME280;33476;50.984;3.538;2024-03-17T01:46:14;102191.19;;;12.23;58.07
47716;BME280;33476;50.984;3.538;2024-03-17T01:48:40;102182.41;;;12.26;57.65
47716;BME280;33476;50.984;3.538;2024-03-17T01:51:07;102172.78;;;12.26;57.88
47716;BME280;33476;50.984;3.538;2024-03-17T01:53:35;102174.75;;;12.20;57.78
47716;BME280;33476;50.984;3.538;2024-03-17T01:56:00;102171.56;;;12.10;57.89
47716;BME280;33476;50.984;3.538;2024-03-17T01:58:27;102166.53;;;12.04;58.24
47716;BME280;33476;50.984;3.538;2024-03-17T02:00:55;102157.88;;;12.02;58.28
47716;BME280;33476;50.984;3.538;2024-03-17T02:03:21;102154.47;;;12.00;58.64
47716;BME280;33476;50.984;3.538;2024-03-17T02:05:47;102152.69;;;12.00;58.21
47716;BME280;33476;50.984;3.538;2024-03-17T02:08:13;102164.56;;;12.11;58.00
47716;BME280;33476;50.984;3.538;2024-03-17T02:10:38;102159.34;;;12.11;57.88
47716;BME280;33476;50.984;3.538;2024-03-17T02:13:04;102149.84;;;12.06;57.83
47716;BME280;33476;50.984;3.538;2024-03-17T02:15:31;102152.38;;;12.09;58.08
47716;BME280;33476;50.984;3.538;2024-03-17T02:17:56;102155.75;;;12.13;57.94
47716;BME280;33476;50.984;3.538;2024-03-17T02:20:22;102147.19;;;12.08;57.80
47716;BME280;33476;50.984;3.538;2024-03-17T02:23:07;102140.19;;;12.08;58.03
47716;BME280;33476;50.984;3.538;2024-03-17T02:25:33;102131.63;;;12.03;58.23
47716;BME280;33476;50.984;3.538;2024-03-17T02:27:58;102137.22;;;11.93;58.08
47716;BME280;33476;50.984;3.538;2024-03-17T02:30:24;102134.81;;;11.87;58.53
47716;BME280;33476;50.984;3.538;2024-03-17T02:32:53;102138.31;;;11.86;58.39
47716;BME280;33476;50.984;3.538;2024-03-17T02:35:20;102140.75;;;11.92;58.45
47716;BME280;33476;50.984;3.538;2024-03-17T02:37:45;102135.53;;;11.92;58.31
47716;BME280;33476;50.984;3.538;2024-03-17T02:40:11;102132.78;;;11.95;58.25
47716;BME280;33476;50.984;3.538;2024-03-17T02:42:36;102123.91;;;11.99;57.99
47716;BME280;33476;50.984;3.538;2024-03-17T02:45:04;102125.69;;;11.98;58.09
47716;BME280;33476;50.984;3.538;2024-03-17T02:47:29;102123.28;;;11.92;58.03
47716;BME280;33476;50.984;3.538;2024-03-17T02:49:55;102122.44;;;11.90;58.40
47716;BME280;33476;50.984;3.538;2024-03-17T02:52:20;102131.88;;;11.96;58.25
47716;BME280;33476;50.984;3.538;2024-03-17T02:54:46;102122.13;;;12.01;58.15
47716;BME280;33476;50.984;3.538;2024-03-17T02:57:11;102111.59;;;12.02;58.03
47716;BME280;33476;50.984;3.538;2024-03-17T02:59:36;102104.53;;;12.04;58.20
47716;BME280;33476;50.984;3.538;2024-03-17T03:02:02;102102.88;;;12.02;58.13
47716;BME280;33476;50.984;3.538;2024-03-17T03:04:27;102100.47;;;11.96;58.09
47716;BME280;33476;50.984;3.538;2024-03-17T03:06:53;102101.44;;;11.93;58.27
47716;BME280;33476;50.984;3.538;2024-03-17T03:09:19;102103.88;;;11.98;58.30
47716;BME280;33476;50.984;3.538;2024-03-17T03:12:02;102107.16;;;12.04;58.03
47716;BME280;33476;50.984;3.538;2024-03-17T03:14:28;102103.53;;;12.08;58.08
47716;BME280;33476;50.984;3.538;2024-03-17T03:16:54;102094.78;;;12.08;57.91
47716;BME280;33476;50.984;3.538;2024-03-17T03:19:20;102098.06;;;12.15;57.82
47716;BME280;33476;50.984;3.538;2024-03-17T03:21:46;102093.66;;;12.17;57.83
47716;BME280;33476;50.984;3.538;2024-03-17T03:24:12;102084.19;;;12.13;58.11
47716;BME280;33476;50.984;3.538;2024-03-17T03:26:38;102076.44;;;12.09;58.01
47716;BME280;33476;50.984;3.538;2024-03-17T03:29:04;102066.97;;;12.05;58.06
47716;BME280;33476;50.984;3.538;2024-03-17T03:31:33;102061.91;;;12.01;58.21
47716;BME280;33476;50.984;3.538;2024-03-17T03:33:59;102062.03;;;11.96;58.25
47716;BME280;33476;50.984;3.538;2024-03-17T03:36:28;102052.69;;;11.89;58.66
47716;BME280;33476;50.984;3.538;2024-03-17T03:38:54;102056.59;;;11.76;59.01
47716;BME280;33476;50.984;3.538;2024-03-17T03:41:22;102060.09;;;11.75;59.10
47716;BME280;33476;50.984;3.538;2024-03-17T03:43:48;102054.00;;;11.74;58.78
47716;BME280;33476;50.984;3.538;2024-03-17T03:46:13;102055.59;;;11.80;58.59
47716;BME280;33476;50.984;3.538;2024-03-17T03:48:38;102049.47;;;11.81;58.66
47716;BME280;33476;50.984;3.538;2024-03-17T03:51:08;102048.63;;;11.79;58.68
47716;BME280;33476;50.984;3.538;2024-03-17T03:53:35;102050.38;;;11.80;58.28
47716;BME280;33476;50.984;3.538;2024-03-17T03:56:03;102042.84;;;11.69;58.69
47716;BME280;33476;50.984;3.538;2024-03-17T03:58:34;102043.81;;;11.67;58.96
47716;BME280;33476;50.984;3.538;2024-03-17T04:01:06;102049.06;;;11.67;58.74
47716;BME280;33476;50.984;3.538;2024-03-17T04:03:33;102045.41;;;11.71;58.85
47716;BME280;33476;50.984;3.538;2024-03-17T04:06:06;102048.22;;;11.65;59.25
47716;BME280;33476;50.984;3.538;2024-03-17T04:08:33;102047.22;;;11.69;58.98
47716;BME280;33476;50.984;3.538;2024-03-17T04:10:58;102040.28;;;11.68;58.91
47716;BME280;33476;50.984;3.538;2024-03-17T04:13:23;102037.69;;;11.68;58.99
47716;BME280;33476;50.984;3.538;2024-03-17T04:15:49;102043.72;;;11.70;58.87
47716;BME280;33476;50.984;3.538;2024-03-17T04:18:15;102041.16;;;11.68;58.86
47716;BME280;33476;50.984;3.538;2024-03-17T04:20:42;102031.47;;;11.70;58.82
47716;BME280;33476;50.984;3.538;2024-03-17T04:23:08;102031.53;;;11.69;59.10
47716;BME280;33476;50.984;3.538;2024-03-17T04:25:33;102038.66;;;11.64;58.84
47716;BME280;33476;50.984;3.538;2024-03-17T04:27:58;102033.50;;;11.62;58.93
47716;BME280;33476;50.984;3.538;2024-03-17T04:30:24;102037.69;;;11.68;59.13
47716;BME280;33476;50.984;3.538;2024-03-17T04:32:49;102027.03;;;11.72;58.92
47716;BME280;33476;50.984;3.538;2024-03-17T04:35:15;102028.00;;;11.70;58.87
47716;BME280;33476;50.984;3.538;2024-03-17T04:37:41;102027.22;;;11.66;58.97
47716;BME280;33476;50.984;3.538;2024-03-17T04:40:07;102030.69;;;11.68;58.99
47716;BME280;33476;50.984;3.538;2024-03-17T04:42:35;102028.13;;;11.65;59.20
47716;BME280;33476;50.984;3.538;2024-03-17T04:45:00;102031.59;;;11.67;58.91
47716;BME280;33476;50.984;3.538;2024-03-17T04:47:26;102028.19;;;11.64;59.28
47716;BME280;33476;50.984;3.538;2024-03-17T04:49:51;102021.13;;;11.67;58.76
47716;BME280;33476;50.984;3.538;2024-03-17T04:52:16;102015.78;;;11.70;58.86
47716;BME280;33476;50.984;3.538;2024-03-17T04:54:42;102010.41;;;11.73;59.05
47716;BME280;33476;50.984;3.538;2024-03-17T04:57:08;102016.75;;;11.68;59.08
47716;BME280;33476;50.984;3.538;2024-03-17T04:59:34;102010.66;;;11.67;58.87
47716;BME280;33476;50.984;3.538;2024-03-17T05:02:00;102011.34;;;11.72;58.83
47716;BME280;33476;50.984;3.538;2024-03-17T05:04:26;102013.94;;;11.72;58.89
47716;BME280;33476;50.984;3.538;2024-03-17T05:06:51;102015.78;;;11.70;58.61
47716;BME280;33476;50.984;3.538;2024-03-17T05:09:17;102005.63;;;11.61;59.35
47716;BME280;33476;50.984;3.538;2024-03-17T05:11:43;102008.38;;;11.57;59.39
47716;BME280;33476;50.984;3.538;2024-03-17T05:14:08;102009.13;;;11.60;59.38
47716;BME280;33476;50.984;3.538;2024-03-17T05:16:34;102006.47;;;11.62;59.24
47716;BME280;33476;50.984;3.538;2024-03-17T05:18:59;101998.00;;;11.53;59.27
47716;BME280;33476;50.984;3.538;2024-03-17T05:21:25;102002.34;;;11.54;59.70
47716;BME280;33476;50.984;3.538;2024-03-17T05:23:51;101996.38;;;11.51;59.56
47716;BME280;33476;50.984;3.538;2024-03-17T05:26:17;101997.47;;;11.44;59.86
47716;BME280;33476;50.984;3.538;2024-03-17T05:28:42;102001.06;;;11.40;60.12
47716;BME280;33476;50.984;3.538;2024-03-17T05:31:08;102000.22;;;11.39;60.29
47716;BME280;33476;50.984;3.538;2024-03-17T05:33:34;102009.94;;;11.36;60.50
47716;BME280;33476;50.984;3.538;2024-03-17T05:36:01;102003.78;;;11.37;60.30
47716;BME280;33476;50.984;3.538;2024-03-17T05:38:28;102003.38;;;11.49;60.24
47716;BME280;33476;50.984;3.538;2024-03-17T05:40:58;102011.94;;;11.54;59.86
47716;BME280;33476;50.984;3.538;2024-03-17T05:43:27;102013.53;;;11.60;59.93
47716;BME280;33476;50.984;3.538;2024-03-17T05:45:54;102011.81;;;11.59;59.75
47716;BME280;33476;50.984;3.538;2024-03-17T05:48:21;102019.56;;;11.62;60.01
47716;BME280;33476;50.984;3.538;2024-03-17T05:50:47;102023.88;;;11.63;60.01
47716;BME280;33476;50.984;3.538;2024-03-17T05:53:13;102020.47;;;11.61;60.07
47716;BME280;33476;50.984;3.538;2024-03-17T05:55:38;102014.44;;;11.59;60.22
47716;BME280;33476;50.984;3.538;2024-03-17T05:58:06;102021.31;;;11.61;60.33
47716;BME280;33476;50.984;3.538;2024-03-17T06:00:34;102016.81;;;11.65;60.29
47716;BME280;33476;50.984;3.538;2024-03-17T06:03:00;102012.50;;;11.64;60.16
47716;BME280;33476;50.984;3.538;2024-03-17T06:05:25;102018.53;;;11.66;60.18
47716;BME280;33476;50.984;3.538;2024-03-17T06:07:50;102014.00;;;11.71;60.34
47716;BME280;33476;50.984;3.538;2024-03-17T06:10:16;102018.34;;;11.72;60.48
47716;BME280;33476;50.984;3.538;2024-03-17T06:12:41;102009.69;;;11.70;60.61
47716;BME280;33476;50.984;3.538;2024-03-17T06:15:07;102003.53;;;11.71;60.32
47716;BME280;33476;50.984;3.538;2024-03-17T06:17:32;102001.72;;;11.73;60.66
47716;BME280;33476;50.984;3.538;2024-03-17T06:19:58;102003.34;;;11.77;60.46
47716;BME280;33476;50.984;3.538;2024-03-17T06:22:23;102005.97;;;11.77;60.44
47716;BME280;33476;50.984;3.538;2024-03-17T06:24:49;102002.44;;;11.78;60.81
47716;BME280;33476;50.984;3.538;2024-03-17T06:27:15;101999.63;;;11.84;60.47
47716;BME280;33476;50.984;3.538;2024-03-17T06:29:41;102008.03;;;11.94;60.53
47716;BME280;33476;50.984;3.538;2024-03-17T06:32:08;102004.28;;;12.01;60.04
47716;BME280;33476;50.984;3.538;2024-03-17T06:34:33;102006.72;;;12.05;60.13
47716;BME280;33476;50.984;3.538;2024-03-17T06:36:58;102014.50;;;12.08;60.12
47716;BME280;33476;50.984;3.538;2024-03-17T06:39:25;102009.16;;;12.12;60.33
47716;BME280;33476;50.984;3.538;2024-03-17T06:41:50;102014.19;;;12.16;60.36
47716;BME280;33476;50.984;3.538;2024-03-17T06:44:16;102008.97;;;12.16;60.36
47716;BME280;33476;50.984;3.538;2024-03-17T06:46:41;102012.41;;;12.18;60.82
47716;BME280;33476;50.984;3.538;2024-03-17T06:49:06;102007.25;;;12.15;61.04
47716;BME280;33476;50.984;3.538;2024-03-17T06:51:32;102008.09;;;12.17;61.38
47716;BME280;33476;50.984;3.538;2024-03-17T06:53:57;102003.47;;;12.24;61.11
47716;BME280;33476;50.984;3.538;2024-03-17T06:56:24;102013.56;;;12.34;61.27
47716;BME280;33476;50.984;3.538;2024-03-17T06:58:50;102013.56;;;12.34;61.73
47716;BME280;33476;50.984;3.538;2024-03-17T07:01:17;102010.88;;;12.36;61.73
47716;BME280;33476;50.984;3.538;2024-03-17T07:03:42;102008.31;;;12.34;61.89
47716;BME280;33476;50.984;3.538;2024-03-17T07:06:09;102012.66;;;12.35;62.17
47716;BME280;33476;50.984;3.538;2024-03-17T07:08:35;102011.81;;;12.35;62.41
47716;BME280;33476;50.984;3.538;2024-03-17T07:11:02;102006.56;;;12.35;62.85
47716;BME280;33476;50.984;3.538;2024-03-17T07:13:32;102012.59;;;12.37;62.61
47716;BME280;33476;50.984;3.538;2024-03-17T07:15:58;102017.91;;;12.35;62.91
47716;BME280;33476;50.984;3.538;2024-03-17T07:18:28;102013.50;;;12.36;62.90
47716;BME280;33476;50.984;3.538;2024-03-17T07:21:01;102024.84;;;12.36;63.29
47716;BME280;33476;50.984;3.538;2024-03-17T07:23:31;102017.84;;;12.37;63.57
47716;BME280;33476;50.984;3.538;2024-03-17T07:25:58;102022.16;;;12.38;63.78
47716;BME280;33476;50.984;3.538;2024-03-17T07:28:25;102029.81;;;12.44;63.61
47716;BME280;33476;50.984;3.538;2024-03-17T07:30:53;102033.84;;;12.53;63.54
47716;BME280;33476;50.984;3.538;2024-03-17T07:33:19;102032.88;;;12.55;64.15
47716;BME280;33476;50.984;3.538;2024-03-17T07:35:58;102032.09;;;12.53;64.42
47716;BME280;33476;50.984;3.538;2024-03-17T07:38:27;102020.63;;;12.56;64.56
47716;BME280;33476;50.984;3.538;2024-03-17T07:41:10;102024.28;;;12.52;64.73
47716;BME280;33476;50.984;3.538;2024-03-17T07:43:37;102026.97;;;12.50;64.77
47716;BME280;33476;50.984;3.538;2024-03-17T07:46:07;102027.28;;;12.41;65.54
47716;BME280;33476;50.984;3.538;2024-03-17T07:48:36;102033.34;;;12.43;65.55
47716;BME280;33476;50.984;3.538;2024-03-17T07:51:03;102033.97;;;12.50;65.74
47716;BME280;33476;50.984;3.538;2024-03-17T07:53:33;102032.38;;;12.46;66.15
47716;BME280;33476;50.984;3.538;2024-03-17T07:58:28;102024.34;;;12.50;66.33
47716;BME280;33476;50.984;3.538;2024-03-17T08:00:57;102020.91;;;12.48;66.68
47716;BME280;33476;50.984;3.538;2024-03-17T08:03:28;102027.81;;;12.51;67.04
47716;BME280;33476;50.984;3.538;2024-03-17T08:05:53;102026.13;;;12.50;67.51
47716;BME280;33476;50.984;3.538;2024-03-17T08:08:19;102026.28;;;12.45;67.99
47716;BME280;33476;50.984;3.538;2024-03-17T08:10:45;102032.22;;;12.50;68.16
47716;BME280;33476;50.984;3.538;2024-03-17T08:13:13;102032.78;;;12.58;67.84
47716;BME280;33476;50.984;3.538;2024-03-17T08:15:41;102030.09;;;12.60;67.70
47716;BME280;33476;50.984;3.538;2024-03-17T08:18:06;102027.47;;;12.60;68.44
47716;BME280;33476;50.984;3.538;2024-03-17T08:20:36;102022.91;;;12.65;68.03
47716;BME280;33476;50.984;3.538;2024-03-17T08:23:02;102020.91;;;12.72;68.31
47716;BME280;33476;50.984;3.538;2024-03-17T08:25:28;102020.63;;;12.79;68.17
47716;BME280;33476;50.984;3.538;2024-03-17T08:27:53;102027.75;;;12.76;68.43
47716;BME280;33476;50.984;3.538;2024-03-17T08:30:18;102027.63;;;12.79;68.80
47716;BME280;33476;50.984;3.538;2024-03-17T08:32:44;102031.03;;;12.81;68.65
47716;BME280;33476;50.984;3.538;2024-03-17T08:35:10;102031.91;;;12.81;69.28
47716;BME280;33476;50.984;3.538;2024-03-17T08:37:38;102019.94;;;12.74;69.72
47716;BME280;33476;50.984;3.538;2024-03-17T08:40:04;102027.06;;;12.71;70.14
47716;BME280;33476;50.984;3.538;2024-03-17T08:42:32;102018.47;;;12.67;70.47
47716;BME280;33476;50.984;3.538;2024-03-17T08:44:57;102016.03;;;12.62;70.99
47716;BME280;33476;50.984;3.538;2024-03-17T08:47:22;102022.25;;;12.60;70.93
47716;BME280;33476;50.984;3.538;2024-03-17T08:49:50;102019.69;;;12.58;71.69
47716;BME280;33476;50.984;3.538;2024-03-17T08:52:16;102024.91;;;12.58;71.43
47716;BME280;33476;50.984;3.538;2024-03-17T08:54:45;102027.47;;;12.60;71.54
47716;BME280;33476;50.984;3.538;2024-03-17T08:57:12;102015.00;;;12.67;71.65
47716;BME280;33476;50.984;3.538;2024-03-17T08:59:37;102017.38;;;12.73;71.65
47716;BME280;33476;50.984;3.538;2024-03-17T09:02:02;102017.31;;;12.74;71.71
47716;BME280;33476;50.984;3.538;2024-03-17T09:04:29;102016.47;;;12.74;72.03
47716;BME280;33476;50.984;3.538;2024-03-17T09:06:54;102011.41;;;12.69;72.24
47716;BME280;33476;50.984;3.538;2024-03-17T09:09:22;102010.63;;;12.67;72.55
47716;BME280;33476;50.984;3.538;2024-03-17T09:11:47;102006.88;;;12.73;72.62
47716;BME280;33476;50.984;3.538;2024-03-17T09:14:12;102011.97;;;12.77;72.65
47716;BME280;33476;50.984;3.538;2024-03-17T09:16:38;102005.03;;;12.76;72.59
47716;BME280;33476;50.984;3.538;2024-03-17T09:19:03;102012.94;;;12.75;72.77
47716;BME280;33476;50.984;3.538;2024-03-17T09:21:29;102006.66;;;12.79;72.77
47716;BME280;33476;50.984;3.538;2024-03-17T09:23:54;102006.38;;;12.86;72.30
47716;BME280;33476;50.984;3.538;2024-03-17T09:26:19;101997.66;;;12.86;72.60
47716;BME280;33476;50.984;3.538;2024-03-17T09:28:45;101999.22;;;12.90;72.65
47716;BME280;33476;50.984;3.538;2024-03-17T09:31:11;101996.50;;;12.93;72.45
47716;BME280;33476;50.984;3.538;2024-03-17T09:33:37;101995.72;;;12.91;72.47
47716;BME280;33476;50.984;3.538;2024-03-17T09:36:07;101990.28;;;12.96;72.82
47716;BME280;33476;50.984;3.538;2024-03-17T09:38:34;101995.38;;;12.99;72.69
47716;BME280;33476;50.984;3.538;2024-03-17T09:41:00;101987.34;;;13.03;72.57
47716;BME280;33476;50.984;3.538;2024-03-17T09:43:27;101995.78;;;13.11;72.15
47716;BME280;33476;50.984;3.538;2024-03-17T09:45:53;101988.53;;;13.18;71.79
47716;BME280;33476;50.984;3.538;2024-03-17T09:48:23;101985.78;;;13.21;72.09
47716;BME280;33476;50.984;3.538;2024-03-17T09:50:59;101988.53;;;13.18;72.30
47716;BME280;33476;50.984;3.538;2024-03-17T09:53:32;101988.53;;;13.18;72.26
47716;BME280;33476;50.984;3.538;2024-03-17T09:55:59;101988.25;;;13.26;72.19
47716;BME280;33476;50.984;3.538;2024-03-17T09:58:25;101990.44;;;13.36;71.73
47716;BME280;33476;50.984;3.538;2024-03-17T10:00:51;101986.63;;;13.43;71.90
47716;BME280;33476;50.984;3.538;2024-03-17T10:06:08;101995.91;;;13.52;72.01
47716;BME280;33476;50.984;3.538;2024-03-17T10:09:00;101994.06;;;13.54;71.81
47716;BME280;33476;50.984;3.538;2024-03-17T10:11:41;101988.94;;;13.71;71.61
47716;BME280;33476;50.984;3.538;2024-03-17T10:14:08;101980.03;;;13.75;71.42
47716;BME280;33476;50.984;3.538;2024-03-17T10:16:35;101979.91;;;13.78;71.54
47716;BME280;33476;50.984;3.538;2024-03-17T10:19:15;101982.28;;;13.85;71.90
47716;BME280;33476;50.984;3.538;2024-03-17T10:21:45;101973.84;;;13.97;71.04
47716;BME280;33476;50.984;3.538;2024-03-17T10:24:23;101979.09;;;13.97;71.39
47716;BME280;33476;50.984;3.538;2024-03-17T10:26:53;101975.44;;;14.01;71.41
47716;BME280;33476;50.984;3.538;2024-03-17T10:29:26;101965.69;;;14.03;71.66
47716;BME280;33476;50.984;3.538;2024-03-17T10:31:55;101960.88;;;14.13;71.44
47716;BME280;33476;50.984;3.538;2024-03-17T10:34:23;101961.47;;;14.19;71.35
47716;BME280;33476;50.984;3.538;2024-03-17T10:36:52;101961.41;;;14.21;71.69
47716;BME280;33476;50.984;3.538;2024-03-17T10:39:30;101958.66;;;14.24;71.47
47716;BME280;33476;50.984;3.538;2024-03-17T10:42:00;101945.44;;;14.25;71.47
47716;BME280;33476;50.984;3.538;2024-03-17T10:44:30;101952.19;;;14.31;71.65
47716;BME280;33476;50.984;3.538;2024-03-17T10:46:57;101948.28;;;14.40;71.34
47716;BME280;33476;50.984;3.538;2024-03-17T10:49:32;101946.38;;;14.43;71.32
47716;BME280;33476;50.984;3.538;2024-03-17T10:52:01;101952.25;;;14.50;71.39
47716;BME280;33476;50.984;3.538;2024-03-17T10:54:28;101939.88;;;14.52;71.34
47716;BME280;33476;50.984;3.538;2024-03-17T10:59:46;101943.50;;;14.49;71.04
47716;BME280;33476;50.984;3.538;2024-03-17T11:02:22;101931.13;;;14.51;71.22
47716;BME280;33476;50.984;3.538;2024-03-17T11:04:58;101928.16;;;14.59;71.34
47716;BME280;33476;50.984;3.538;2024-03-17T11:07:25;101919.75;;;14.70;71.14
47716;BME280;33476;50.984;3.538;2024-03-17T11:09:53;101926.41;;;14.77;71.09
47716;BME280;33476;50.984;3.538;2024-03-17T11:12:43;101918.25;;;14.83;71.21
47716;BME280;33476;50.984;3.538;2024-03-17T11:20:34;101911.06;;;15.04;71.08
47716;BME280;33476;50.984;3.538;2024-03-17T11:23:00;101911.53;;;15.12;70.70
47716;BME280;33476;50.984;3.538;2024-03-17T11:27:58;101904.59;;;15.28;70.66
47716;BME280;33476;50.984;3.538;2024-03-17T11:49:22;101886.53;;;16.06;68.67
47716;BME280;33476;50.984;3.538;2024-03-17T11:51:48;101885.59;;;16.07;68.36
47716;BME280;33476;50.984;3.538;2024-03-17T11:54:16;101882.97;;;16.07;68.53
47716;BME280;33476;50.984;3.538;2024-03-17T11:56:51;101875.66;;;16.12;68.05
47716;BME280;33476;50.984;3.538;2024-03-17T11:59:18;101863.00;;;16.18;67.99
47716;BME280;33476;50.984;3.538;2024-03-17T12:01:45;101867.19;;;16.22;67.90
47716;BME280;33476;50.984;3.538;2024-03-17T12:04:13;101857.50;;;16.23;67.86
47716;BME280;33476;50.984;3.538;2024-03-17T12:06:39;101863.25;;;16.29;67.88
47716;BME280;33476;50.984;3.538;2024-03-17T12:11:39;101861.22;;;16.35;67.60
47716;BME280;33476;50.984;3.538;2024-03-17T12:14:15;101858.50;;;16.36;67.56
47716;BME280;33476;50.984;3.538;2024-03-17T12:16:54;101845.91;;;16.41;67.44
47716;BME280;33476;50.984;3.538;2024-03-17T12:19:20;101849.91;;;16.48;67.21
47716;BME280;33476;50.984;3.538;2024-03-17T12:21:51;101840.38;;;16.46;67.35
47716;BME280;33476;50.984;3.538;2024-03-17T12:24:19;101840.31;;;16.47;67.46
47716;BME280;33476;50.984;3.538;2024-03-17T12:26:45;101833.56;;;16.42;67.71
47716;BME280;33476;50.984;3.538;2024-03-17T12:32:04;101812.91;;;16.50;67.58
47716;BME280;33476;50.984;3.538;2024-03-17T12:34:33;101821.66;;;16.50;67.52
47716;BME280;33476;50.984;3.538;2024-03-17T12:37:02;101822.50;;;16.51;67.16
47716;BME280;33476;50.984;3.538;2024-03-17T12:39:32;101822.59;;;16.49;66.80
47716;BME280;33476;50.984;3.538;2024-03-17T12:42:10;101818.16;;;16.50;66.76
47716;BME280;33476;50.984;3.538;2024-03-17T12:44:38;101815.34;;;16.53;66.62
47716;BME280;33476;50.984;3.538;2024-03-17T12:47:07;101817.81;;;16.56;66.34
47716;BME280;33476;50.984;3.538;2024-03-17T12:49:33;101814.34;;;16.55;65.93
47716;BME280;33476;50.984;3.538;2024-03-17T12:52:02;101808.28;;;16.53;65.77
47716;BME280;33476;50.984;3.538;2024-03-17T12:54:28;101800.66;;;16.49;65.83
47716;BME280;33476;50.984;3.538;2024-03-17T12:57:05;101782.44;;;16.44;65.94
47716;BME280;33476;50.984;3.538;2024-03-17T12:59:49;101798.00;;;16.49;65.71
47716;BME280;33476;50.984;3.538;2024-03-17T13:02:34;101796.88;;;16.53;65.66
47716;BME280;33476;50.984;3.538;2024-03-17T13:07:44;101787.56;;;16.47;66.06
47716;BME280;33476;50.984;3.538;2024-03-17T13:10:12;101790.00;;;16.50;66.33
47716;BME280;33476;50.984;3.538;2024-03-17T13:12:38;101787.47;;;16.49;66.67
47716;BME280;33476;50.984;3.538;2024-03-17T13:15:04;101784.84;;;16.49;66.96
47716;BME280;33476;50.984;3.538;2024-03-17T13:17:30;101779.91;;;16.43;67.19
47716;BME280;33476;50.984;3.538;2024-03-17T13:19:59;101776.66;;;16.38;67.19
47716;BME280;33476;50.984;3.538;2024-03-17T13:22:24;101776.00;;;16.34;67.47
47716;BME280;33476;50.984;3.538;2024-03-17T13:24:49;101778.38;;;16.39;67.62
47716;BME280;33476;50.984;3.538;2024-03-17T13:27:16;101768.28;;;16.31;67.81
47716;BME280;33476;50.984;3.538;2024-03-17T13:29:41;101765.22;;;16.23;68.31
47716;BME280;33476;50.984;3.538;2024-03-17T13:32:11;101766.41;;;16.17;68.21
47716;BME280;33476;50.984;3.538;2024-03-17T13:34:37;101756.81;;;16.16;68.33